sensor_id;sensor_type;location;lat;lon;timestamp;P1;durP1;ratioP1;P2;durP2;ratioP2
25247;SDS011;13191;47.472;11.214;2022-07-09T00:00:35;4.35;;;1.23;;
25247;SDS011;13191;47.472;11.214;2022-07-09T00:03:01;5.30;;;1.70;;
25247;SDS011;13191;47.472;11.214;2022-07-09T00:05:26;2.35;;;1.02;;
25247;SDS011;13191;47.472;11.214;2022-07-09T00:07:52;2.13;;;1.02;;
25247;SDS011;13191;47.472;11.214;2022-07-09T00:10:18;4.50;;;1.55;;
25247;SDS011;13191;47.472;11.214;2022-07-09T00:12:44;7.68;;;1.00;;
25247;SDS011;13191;47.472;11.214;2022-07-09T00:15:09;2.75;;;1.33;;
25247;SDS011;13191;47.472;11.214;2022-07-09T00:17:35;4.43;;;1.73;;
25247;SDS011;13191;47.472;11.214;2022-07-09T00:20:01;7.22;;;1.52;;
25247;SDS011;13191;47.472;11.214;2022-07-09T00:22:30;2.60;;;1.60;;
25247;SDS011;13191;47.472;11.214;2022-07-09T00:24:58;3.67;;;1.33;;
25247;SDS011;13191;47.472;11.214;2022-07-09T00:27:25;2.97;;;1.23;;
25247;SDS011;13191;47.472;11.214;2022-07-09T00:29:50;3.33;;;1.42;;
25247;SDS011;13191;47.472;11.214;2022-07-09T00:32:16;1.90;;;1.20;;
25247;SDS011;13191;47.472;11.214;2022-07-09T00:34:43;2.55;;;1.30;;
25247;SDS011;13191;47.472;11.214;2022-07-09T00:37:09;3.70;;;1.52;;
25247;SDS011;13191;47.472;11.214;2022-07-09T00:39:34;3.72;;;1.38;;
25247;SDS011;13191;47.472;11.214;2022-07-09T00:42:04;3.10;;;1.42;;
25247;SDS011;13191;47.472;11.214;2022-07-09T00:44:30;5.32;;;1.20;;
25247;SDS011;13191;47.472;11.214;2022-07-09T00:46:56;3.92;;;1.55;;
25247;SDS011;13191;47.472;11.214;2022-07-09T00:49:22;2.25;;;1.55;;
25247;SDS011;13191;47.472;11.214;2022-07-09T00:51:48;2.63;;;1.30;;
25247;SDS011;13191;47.472;11.214;2022-07-09T00:54:14;2.95;;;1.30;;
25247;SDS011;13191;47.472;11.214;2022-07-09T00:56:40;2.33;;;1.17;;
25247;SDS011;13191;47.472;11.214;2022-07-09T00:59:06;1.88;;;1.00;;
25247;SDS011;13191;47.472;11.214;2022-07-09T01:01:35;2.97;;;1.30;;
25247;SDS011;13191;47.472;11.214;2022-07-09T01:04:01;3.53;;;1.50;;
25247;SDS011;13191;47.472;11.214;2022-07-09T01:06:27;2.78;;;1.10;;
25247;SDS011;13191;47.472;11.214;2022-07-09T01:08:53;1.95;;;1.10;;
25247;SDS011;13191;47.472;11.214;2022-07-09T01:11:18;2.35;;;1.17;;
25247;SDS011;13191;47.472;11.214;2022-07-09T01:13:44;7.22;;;1.13;;
25247;SDS011;13191;47.472;11.214;2022-07-09T01:16:11;3.03;;;1.02;;
25247;SDS011;13191;47.472;11.214;2022-07-09T01:18:42;2.70;;;1.23;;
25247;SDS011;13191;47.472;11.214;2022-07-09T01:21:09;2.80;;;1.17;;
25247;SDS011;13191;47.472;11.214;2022-07-09T01:23:35;1.67;;;0.95;;
25247;SDS011;13191;47.472;11.214;2022-07-09T01:26:00;1.80;;;1.08;;
25247;SDS011;13191;47.472;11.214;2022-07-09T01:28:26;1.48;;;0.88;;
25247;SDS011;13191;47.472;11.214;2022-07-09T01:30:53;2.42;;;1.35;;
25247;SDS011;13191;47.472;11.214;2022-07-09T01:33:19;2.60;;;1.55;;
25247;SDS011;13191;47.472;11.214;2022-07-09T01:35:44;1.83;;;1.10;;
25247;SDS011;13191;47.472;11.214;2022-07-09T01:38:13;4.00;;;1.60;;
25247;SDS011;13191;47.472;11.214;2022-07-09T01:40:38;2.42;;;1.10;;
25247;SDS011;13191;47.472;11.214;2022-07-09T01:43:04;3.95;;;1.23;;
25247;SDS011;13191;47.472;11.214;2022-07-09T01:45:29;4.88;;;1.40;;
25247;SDS011;13191;47.472;11.214;2022-07-09T01:47:55;3.63;;;1.48;;
25247;SDS011;13191;47.472;11.214;2022-07-09T01:50:21;2.08;;;1.25;;
25247;SDS011;13191;47.472;11.214;2022-07-09T01:52:47;5.22;;;1.40;;
25247;SDS011;13191;47.472;11.214;2022-07-09T01:55:12;2.15;;;1.30;;
25247;SDS011;13191;47.472;11.214;2022-07-09T01:57:38;1.90;;;1.17;;
25247;SDS011;13191;47.472;11.214;2022-07-09T02:00:04;4.30;;;1.83;;
25247;SDS011;13191;47.472;11.214;2022-07-09T02:02:30;1.65;;;1.08;;
25247;SDS011;13191;47.472;11.214;2022-07-09T02:04:56;2.65;;;1.10;;
25247;SDS011;13191;47.472;11.214;2022-07-09T02:07:21;3.05;;;1.25;;
25247;SDS011;13191;47.472;11.214;2022-07-09T02:09:47;6.65;;;1.75;;
25247;SDS011;13191;47.472;11.214;2022-07-09T02:12:14;5.63;;;1.33;;
25247;SDS011;13191;47.472;11.214;2022-07-09T02:14:42;2.78;;;1.42;;
25247;SDS011;13191;47.472;11.214;2022-07-09T02:17:07;2.28;;;1.33;;
25247;SDS011;13191;47.472;11.214;2022-07-09T02:19:33;1.60;;;1.08;;
25247;SDS011;13191;47.472;11.214;2022-07-09T02:21:59;7.93;;;1.52;;
25247;SDS011;13191;47.472;11.214;2022-07-09T02:24:24;3.20;;;1.70;;
25247;SDS011;13191;47.472;11.214;2022-07-09T02:26:50;1.90;;;1.05;;
25247;SDS011;13191;47.472;11.214;2022-07-09T02:29:15;3.55;;;1.17;;
25247;SDS011;13191;47.472;11.214;2022-07-09T02:31:41;5.75;;;1.30;;
25247;SDS011;13191;47.472;11.214;2022-07-09T02:34:07;2.95;;;1.38;;
25247;SDS011;13191;47.472;11.214;2022-07-09T02:36:33;4.18;;;1.33;;
25247;SDS011;13191;47.472;11.214;2022-07-09T02:38:58;3.72;;;1.00;;
25247;SDS011;13191;47.472;11.214;2022-07-09T02:41:24;2.55;;;1.52;;
25247;SDS011;13191;47.472;11.214;2022-07-09T02:43:50;2.63;;;1.50;;
25247;SDS011;13191;47.472;11.214;2022-07-09T02:46:15;3.05;;;1.35;;
25247;SDS011;13191;47.472;11.214;2022-07-09T02:48:41;3.17;;;1.30;;
25247;SDS011;13191;47.472;11.214;2022-07-09T02:51:07;4.38;;;1.30;;
25247;SDS011;13191;47.472;11.214;2022-07-09T02:53:32;5.20;;;1.30;;
25247;SDS011;13191;47.472;11.214;2022-07-09T02:55:58;2.67;;;1.30;;
25247;SDS011;13191;47.472;11.214;2022-07-09T02:58:24;13.20;;;1.63;;
25247;SDS011;13191;47.472;11.214;2022-07-09T03:00:49;4.32;;;1.20;;
25247;SDS011;13191;47.472;11.214;2022-07-09T03:03:15;2.72;;;1.65;;
25247;SDS011;13191;47.472;11.214;2022-07-09T03:05:41;3.13;;;1.58;;
25247;SDS011;13191;47.472;11.214;2022-07-09T03:08:07;3.00;;;1.20;;
25247;SDS011;13191;47.472;11.214;2022-07-09T03:10:33;2.28;;;1.23;;
25247;SDS011;13191;47.472;11.214;2022-07-09T03:12:59;4.20;;;1.75;;
25247;SDS011;13191;47.472;11.214;2022-07-09T03:15:25;2.78;;;1.45;;
25247;SDS011;13191;47.472;11.214;2022-07-09T03:17:51;1.83;;;1.27;;
25247;SDS011;13191;47.472;11.214;2022-07-09T03:20:17;5.30;;;1.70;;
25247;SDS011;13191;47.472;11.214;2022-07-09T03:22:42;4.53;;;1.38;;
25247;SDS011;13191;47.472;11.214;2022-07-09T03:25:08;2.70;;;1.40;;
25247;SDS011;13191;47.472;11.214;2022-07-09T03:27:34;1.70;;;1.10;;
25247;SDS011;13191;47.472;11.214;2022-07-09T03:30:00;5.10;;;1.15;;
25247;SDS011;13191;47.472;11.214;2022-07-09T03:32:27;1.65;;;1.13;;
25247;SDS011;13191;47.472;11.214;2022-07-09T03:37:24;3.28;;;1.50;;
25247;SDS011;13191;47.472;11.214;2022-07-09T03:39:50;2.60;;;1.33;;
25247;SDS011;13191;47.472;11.214;2022-07-09T03:42:15;3.90;;;1.40;;
25247;SDS011;13191;47.472;11.214;2022-07-09T03:44:41;3.03;;;1.55;;
25247;SDS011;13191;47.472;11.214;2022-07-09T03:47:07;4.00;;;1.60;;
25247;SDS011;13191;47.472;11.214;2022-07-09T03:49:39;3.30;;;1.35;;
25247;SDS011;13191;47.472;11.214;2022-07-09T03:52:04;4.50;;;1.50;;
25247;SDS011;13191;47.472;11.214;2022-07-09T03:54:30;2.03;;;1.23;;
25247;SDS011;13191;47.472;11.214;2022-07-09T03:56:56;3.65;;;1.27;;
25247;SDS011;13191;47.472;11.214;2022-07-09T03:59:21;3.95;;;1.48;;
25247;SDS011;13191;47.472;11.214;2022-07-09T04:01:47;1.85;;;1.05;;
25247;SDS011;13191;47.472;11.214;2022-07-09T04:04:13;3.40;;;1.10;;
25247;SDS011;13191;47.472;11.214;2022-07-09T04:06:38;5.15;;;1.45;;
25247;SDS011;13191;47.472;11.214;2022-07-09T04:09:04;2.08;;;1.33;;
25247;SDS011;13191;47.472;11.214;2022-07-09T04:11:33;2.17;;;1.27;;
25247;SDS011;13191;47.472;11.214;2022-07-09T04:13:59;3.25;;;1.55;;
25247;SDS011;13191;47.472;11.214;2022-07-09T04:16:26;2.67;;;1.50;;
25247;SDS011;13191;47.472;11.214;2022-07-09T04:18:52;2.53;;;1.50;;
25247;SDS011;13191;47.472;11.214;2022-07-09T04:21:20;3.08;;;1.67;;
25247;SDS011;13191;47.472;11.214;2022-07-09T04:23:49;4.88;;;1.55;;
25247;SDS011;13191;47.472;11.214;2022-07-09T04:26:15;3.22;;;1.40;;
25247;SDS011;13191;47.472;11.214;2022-07-09T04:28:43;3.00;;;1.42;;
25247;SDS011;13191;47.472;11.214;2022-07-09T04:31:09;3.33;;;1.40;;
25247;SDS011;13191;47.472;11.214;2022-07-09T04:33:38;5.72;;;1.85;;
25247;SDS011;13191;47.472;11.214;2022-07-09T04:36:04;3.47;;;1.60;;
25247;SDS011;13191;47.472;11.214;2022-07-09T04:38:32;3.70;;;1.40;;
25247;SDS011;13191;47.472;11.214;2022-07-09T04:41:01;5.43;;;1.38;;
25247;SDS011;13191;47.472;11.214;2022-07-09T04:43:27;2.78;;;1.33;;
25247;SDS011;13191;47.472;11.214;2022-07-09T04:45:52;1.92;;;1.27;;
25247;SDS011;13191;47.472;11.214;2022-07-09T04:48:21;3.00;;;1.67;;
25247;SDS011;13191;47.472;11.214;2022-07-09T04:50:49;3.55;;;1.90;;
25247;SDS011;13191;47.472;11.214;2022-07-09T04:53:18;4.38;;;1.50;;
25247;SDS011;13191;47.472;11.214;2022-07-09T04:55:44;2.92;;;1.40;;
25247;SDS011;13191;47.472;11.214;2022-07-09T04:58:09;2.55;;;1.70;;
25247;SDS011;13191;47.472;11.214;2022-07-09T05:00:35;2.63;;;1.60;;
25247;SDS011;13191;47.472;11.214;2022-07-09T05:03:01;2.88;;;1.85;;
25247;SDS011;13191;47.472;11.214;2022-07-09T05:05:27;2.17;;;1.40;;
25247;SDS011;13191;47.472;11.214;2022-07-09T05:07:56;3.25;;;1.60;;
25247;SDS011;13191;47.472;11.214;2022-07-09T05:10:22;4.45;;;1.38;;
25247;SDS011;13191;47.472;11.214;2022-07-09T05:12:48;3.75;;;1.80;;
25247;SDS011;13191;47.472;11.214;2022-07-09T05:15:13;2.28;;;1.20;;
25247;SDS011;13191;47.472;11.214;2022-07-09T05:17:41;2.90;;;1.67;;
25247;SDS011;13191;47.472;11.214;2022-07-09T05:20:08;4.65;;;1.70;;
25247;SDS011;13191;47.472;11.214;2022-07-09T05:22:34;2.40;;;1.45;;
25247;SDS011;13191;47.472;11.214;2022-07-09T05:25:04;3.25;;;1.50;;
25247;SDS011;13191;47.472;11.214;2022-07-09T05:27:31;4.25;;;1.63;;
25247;SDS011;13191;47.472;11.214;2022-07-09T05:29:57;3.83;;;1.52;;
25247;SDS011;13191;47.472;11.214;2022-07-09T05:32:23;3.00;;;1.55;;
25247;SDS011;13191;47.472;11.214;2022-07-09T05:34:49;7.30;;;1.50;;
25247;SDS011;13191;47.472;11.214;2022-07-09T05:37:14;3.40;;;1.42;;
25247;SDS011;13191;47.472;11.214;2022-07-09T05:39:40;6.07;;;1.52;;
25247;SDS011;13191;47.472;11.214;2022-07-09T05:42:06;2.65;;;1.42;;
25247;SDS011;13191;47.472;11.214;2022-07-09T05:44:32;3.30;;;1.42;;
25247;SDS011;13191;47.472;11.214;2022-07-09T05:46:57;3.00;;;1.30;;
25247;SDS011;13191;47.472;11.214;2022-07-09T05:49:23;6.22;;;1.40;;
25247;SDS011;13191;47.472;11.214;2022-07-09T05:51:50;3.33;;;1.40;;
25247;SDS011;13191;47.472;11.214;2022-07-09T05:54:16;2.35;;;1.40;;
25247;SDS011;13191;47.472;11.214;2022-07-09T05:56:42;2.63;;;1.40;;
25247;SDS011;13191;47.472;11.214;2022-07-09T05:59:07;2.88;;;1.77;;
25247;SDS011;13191;47.472;11.214;2022-07-09T06:01:33;2.65;;;1.48;;
25247;SDS011;13191;47.472;11.214;2022-07-09T06:04:05;2.50;;;1.45;;
25247;SDS011;13191;47.472;11.214;2022-07-09T06:06:31;3.50;;;1.95;;
25247;SDS011;13191;47.472;11.214;2022-07-09T06:08:56;6.35;;;1.90;;
25247;SDS011;13191;47.472;11.214;2022-07-09T06:11:22;5.03;;;1.70;;
25247;SDS011;13191;47.472;11.214;2022-07-09T06:13:48;4.75;;;1.77;;
25247;SDS011;13191;47.472;11.214;2022-07-09T06:16:13;5.80;;;1.65;;
25247;SDS011;13191;47.472;11.214;2022-07-09T06:18:39;3.28;;;1.80;;
25247;SDS011;13191;47.472;11.214;2022-07-09T06:21:05;5.97;;;1.65;;
25247;SDS011;13191;47.472;11.214;2022-07-09T06:23:31;5.47;;;2.42;;
25247;SDS011;13191;47.472;11.214;2022-07-09T06:25:56;5.50;;;1.60;;
25247;SDS011;13191;47.472;11.214;2022-07-09T06:28:22;2.25;;;1.27;;
25247;SDS011;13191;47.472;11.214;2022-07-09T06:30:47;4.50;;;1.65;;
25247;SDS011;13191;47.472;11.214;2022-07-09T06:33:13;6.00;;;1.67;;
25247;SDS011;13191;47.472;11.214;2022-07-09T06:35:39;7.68;;;1.70;;
25247;SDS011;13191;47.472;11.214;2022-07-09T06:38:04;3.78;;;1.77;;
25247;SDS011;13191;47.472;11.214;2022-07-09T06:40:30;7.85;;;2.42;;
25247;SDS011;13191;47.472;11.214;2022-07-09T06:42:55;2.65;;;1.35;;
25247;SDS011;13191;47.472;11.214;2022-07-09T06:45:21;4.72;;;1.80;;
25247;SDS011;13191;47.472;11.214;2022-07-09T06:47:47;3.33;;;1.60;;
25247;SDS011;13191;47.472;11.214;2022-07-09T06:50:13;2.70;;;1.25;;
25247;SDS011;13191;47.472;11.214;2022-07-09T06:52:39;4.50;;;1.58;;
25247;SDS011;13191;47.472;11.214;2022-07-09T06:55:05;6.40;;;1.70;;
25247;SDS011;13191;47.472;11.214;2022-07-09T06:57:31;2.42;;;1.30;;
25247;SDS011;13191;47.472;11.214;2022-07-09T06:59:59;3.22;;;1.63;;
25247;SDS011;13191;47.472;11.214;2022-07-09T07:02:26;3.92;;;1.63;;
25247;SDS011;13191;47.472;11.214;2022-07-09T07:04:52;2.40;;;1.48;;
25247;SDS011;13191;47.472;11.214;2022-07-09T07:07:17;3.88;;;1.30;;
25247;SDS011;13191;47.472;11.214;2022-07-09T07:09:43;1.98;;;1.33;;
25247;SDS011;13191;47.472;11.214;2022-07-09T07:12:08;3.97;;;1.77;;
25247;SDS011;13191;47.472;11.214;2022-07-09T07:14:34;4.18;;;1.70;;
25247;SDS011;13191;47.472;11.214;2022-07-09T07:17:03;3.03;;;1.90;;
25247;SDS011;13191;47.472;11.214;2022-07-09T07:19:29;5.97;;;1.70;;
25247;SDS011;13191;47.472;11.214;2022-07-09T07:21:54;8.27;;;1.60;;
25247;SDS011;13191;47.472;11.214;2022-07-09T07:24:20;4.68;;;1.65;;
25247;SDS011;13191;47.472;11.214;2022-07-09T07:26:46;3.28;;;1.50;;
25247;SDS011;13191;47.472;11.214;2022-07-09T07:29:11;6.43;;;1.63;;
25247;SDS011;13191;47.472;11.214;2022-07-09T07:31:37;2.15;;;1.30;;
25247;SDS011;13191;47.472;11.214;2022-07-09T07:34:02;3.63;;;1.30;;
25247;SDS011;13191;47.472;11.214;2022-07-09T07:36:28;5.93;;;1.83;;
25247;SDS011;13191;47.472;11.214;2022-07-09T07:38:54;3.35;;;1.30;;
25247;SDS011;13191;47.472;11.214;2022-07-09T07:41:19;3.22;;;1.35;;
25247;SDS011;13191;47.472;11.214;2022-07-09T07:43:46;4.00;;;1.60;;
25247;SDS011;13191;47.472;11.214;2022-07-09T07:46:12;4.43;;;1.52;;
25247;SDS011;13191;47.472;11.214;2022-07-09T07:48:38;4.32;;;1.48;;
25247;SDS011;13191;47.472;11.214;2022-07-09T07:51:07;2.55;;;1.25;;
25247;SDS011;13191;47.472;11.214;2022-07-09T07:53:33;3.72;;;1.30;;
25247;SDS011;13191;47.472;11.214;2022-07-09T07:55:59;2.95;;;1.30;;
25247;SDS011;13191;47.472;11.214;2022-07-09T07:58:26;4.18;;;1.33;;
25247;SDS011;13191;47.472;11.214;2022-07-09T08:00:51;2.13;;;1.50;;
25247;SDS011;13191;47.472;11.214;2022-07-09T08:03:17;3.13;;;1.50;;
25247;SDS011;13191;47.472;11.214;2022-07-09T08:05:43;3.70;;;1.50;;
25247;SDS011;13191;47.472;11.214;2022-07-09T08:08:08;8.20;;;1.48;;
25247;SDS011;13191;47.472;11.214;2022-07-09T08:10:34;4.10;;;1.30;;
25247;SDS011;13191;47.472;11.214;2022-07-09T08:12:59;3.60;;;1.08;;
25247;SDS011;13191;47.472;11.214;2022-07-09T08:15:25;7.28;;;1.52;;
25247;SDS011;13191;47.472;11.214;2022-07-09T08:17:51;4.03;;;1.10;;
25247;SDS011;13191;47.472;11.214;2022-07-09T08:20:16;4.30;;;1.27;;
25247;SDS011;13191;47.472;11.214;2022-07-09T08:22:42;5.90;;;1.20;;
25247;SDS011;13191;47.472;11.214;2022-07-09T08:25:08;4.93;;;1.45;;
25247;SDS011;13191;47.472;11.214;2022-07-09T08:27:34;3.60;;;1.30;;
25247;SDS011;13191;47.472;11.214;2022-07-09T08:29:59;5.30;;;1.35;;
25247;SDS011;13191;47.472;11.214;2022-07-09T08:32:25;5.85;;;1.00;;
25247;SDS011;13191;47.472;11.214;2022-07-09T08:34:51;6.20;;;1.30;;
25247;SDS011;13191;47.472;11.214;2022-07-09T08:37:16;3.78;;;1.63;;
25247;SDS011;13191;47.472;11.214;2022-07-09T08:39:43;2.03;;;1.13;;
25247;SDS011;13191;47.472;11.214;2022-07-09T08:42:09;2.45;;;1.02;;
25247;SDS011;13191;47.472;11.214;2022-07-09T08:44:37;1.55;;;0.95;;
25247;SDS011;13191;47.472;11.214;2022-07-09T08:47:08;5.40;;;1.65;;
25247;SDS011;13191;47.472;11.214;2022-07-09T08:49:37;2.28;;;1.02;;
25247;SDS011;13191;47.472;11.214;2022-07-09T08:52:03;2.90;;;1.20;;
25247;SDS011;13191;47.472;11.214;2022-07-09T08:54:31;4.85;;;1.00;;
25247;SDS011;13191;47.472;11.214;2022-07-09T08:56:58;3.92;;;1.27;;
25247;SDS011;13191;47.472;11.214;2022-07-09T08:59:24;7.70;;;1.55;;
25247;SDS011;13191;47.472;11.214;2022-07-09T09:01:49;4.38;;;1.20;;
25247;SDS011;13191;47.472;11.214;2022-07-09T09:04:15;3.67;;;1.35;;
25247;SDS011;13191;47.472;11.214;2022-07-09T09:06:43;3.15;;;1.00;;
25247;SDS011;13191;47.472;11.214;2022-07-09T09:09:08;7.88;;;1.17;;
25247;SDS011;13191;47.472;11.214;2022-07-09T09:11:36;2.50;;;1.00;;
25247;SDS011;13191;47.472;11.214;2022-07-09T09:14:02;2.10;;;1.13;;
25247;SDS011;13191;47.472;11.214;2022-07-09T09:16:28;3.38;;;1.30;;
25247;SDS011;13191;47.472;11.214;2022-07-09T09:18:54;2.20;;;1.30;;
25247;SDS011;13191;47.472;11.214;2022-07-09T09:21:23;5.45;;;1.23;;
25247;SDS011;13191;47.472;11.214;2022-07-09T09:23:51;3.80;;;1.00;;
25247;SDS011;13191;47.472;11.214;2022-07-09T09:26:19;5.80;;;1.30;;
25247;SDS011;13191;47.472;11.214;2022-07-09T09:28:50;3.00;;;1.02;;
25247;SDS011;13191;47.472;11.214;2022-07-09T09:31:22;6.40;;;1.35;;
25247;SDS011;13191;47.472;11.214;2022-07-09T09:33:53;3.97;;;1.17;;
25247;SDS011;13191;47.472;11.214;2022-07-09T09:36:33;9.63;;;1.70;;
25247;SDS011;13191;47.472;11.214;2022-07-09T09:39:16;1.58;;;0.90;;
25247;SDS011;13191;47.472;11.214;2022-07-09T09:41:50;3.00;;;1.00;;
25247;SDS011;13191;47.472;11.214;2022-07-09T09:44:29;3.50;;;1.25;;
25247;SDS011;13191;47.472;11.214;2022-07-09T09:47:02;2.33;;;1.27;;
25247;SDS011;13191;47.472;11.214;2022-07-09T09:49:29;5.93;;;1.00;;
25247;SDS011;13191;47.472;11.214;2022-07-09T09:52:05;3.83;;;1.02;;
25247;SDS011;13191;47.472;11.214;2022-07-09T09:54:33;5.47;;;1.45;;
25247;SDS011;13191;47.472;11.214;2022-07-09T09:57:07;3.95;;;1.52;;
25247;SDS011;13191;47.472;11.214;2022-07-09T09:59:38;5.15;;;1.40;;
25247;SDS011;13191;47.472;11.214;2022-07-09T10:02:05;3.35;;;1.27;;
25247;SDS011;13191;47.472;11.214;2022-07-09T10:04:31;5.13;;;1.30;;
25247;SDS011;13191;47.472;11.214;2022-07-09T10:06:57;1.88;;;0.80;;
25247;SDS011;13191;47.472;11.214;2022-07-09T10:09:23;2.47;;;0.88;;
25247;SDS011;13191;47.472;11.214;2022-07-09T10:11:49;2.65;;;0.88;;
25247;SDS011;13191;47.472;11.214;2022-07-09T10:16:50;3.90;;;0.77;;
25247;SDS011;13191;47.472;11.214;2022-07-09T10:19:24;2.72;;;0.85;;
25247;SDS011;13191;47.472;11.214;2022-07-09T10:21:54;3.83;;;1.23;;
25247;SDS011;13191;47.472;11.214;2022-07-09T10:24:29;1.90;;;0.75;;
25247;SDS011;13191;47.472;11.214;2022-07-09T10:27:09;1.20;;;0.68;;
25247;SDS011;13191;47.472;11.214;2022-07-09T10:29:36;4.30;;;0.98;;
25247;SDS011;13191;47.472;11.214;2022-07-09T10:32:26;1.40;;;0.77;;
25247;SDS011;13191;47.472;11.214;2022-07-09T10:34:58;5.10;;;1.45;;
25247;SDS011;13191;47.472;11.214;2022-07-09T10:37:43;2.40;;;0.98;;
25247;SDS011;13191;47.472;11.214;2022-07-09T10:42:37;1.23;;;0.80;;
25247;SDS011;13191;47.472;11.214;2022-07-09T10:45:26;2.38;;;0.88;;
25247;SDS011;13191;47.472;11.214;2022-07-09T10:47:54;1.73;;;0.90;;
25247;SDS011;13191;47.472;11.214;2022-07-09T10:50:24;2.00;;;0.90;;
25247;SDS011;13191;47.472;11.214;2022-07-09T10:52:52;2.67;;;1.10;;
25247;SDS011;13191;47.472;11.214;2022-07-09T10:55:19;1.80;;;0.93;;
25247;SDS011;13191;47.472;11.214;2022-07-09T10:57:45;2.30;;;0.88;;
25247;SDS011;13191;47.472;11.214;2022-07-09T11:00:21;1.23;;;0.70;;
25247;SDS011;13191;47.472;11.214;2022-07-09T11:02:54;1.88;;;1.00;;
25247;SDS011;13191;47.472;11.214;2022-07-09T11:05:32;2.67;;;0.80;;
25247;SDS011;13191;47.472;11.214;2022-07-09T11:08:07;1.90;;;0.90;;
25247;SDS011;13191;47.472;11.214;2022-07-09T11:10:37;6.63;;;0.82;;
25247;SDS011;13191;47.472;11.214;2022-07-09T11:13:03;4.80;;;1.00;;
25247;SDS011;13191;47.472;11.214;2022-07-09T11:15:32;0.90;;;0.50;;
25247;SDS011;13191;47.472;11.214;2022-07-09T11:18:05;1.75;;;0.80;;
25247;SDS011;13191;47.472;11.214;2022-07-09T11:20:36;1.85;;;0.70;;
25247;SDS011;13191;47.472;11.214;2022-07-09T11:23:02;2.95;;;0.77;;
25247;SDS011;13191;47.472;11.214;2022-07-09T11:25:28;1.45;;;0.68;;
25247;SDS011;13191;47.472;11.214;2022-07-09T11:27:55;3.25;;;0.80;;
25247;SDS011;13191;47.472;11.214;2022-07-09T11:30:23;1.63;;;0.60;;
25247;SDS011;13191;47.472;11.214;2022-07-09T11:32:50;2.42;;;0.60;;
25247;SDS011;13191;47.472;11.214;2022-07-09T11:37:51;2.80;;;0.55;;
25247;SDS011;13191;47.472;11.214;2022-07-09T11:40:18;1.70;;;0.65;;
25247;SDS011;13191;47.472;11.214;2022-07-09T11:42:44;1.42;;;0.50;;
25247;SDS011;13191;47.472;11.214;2022-07-09T11:45:10;2.28;;;0.70;;
25247;SDS011;13191;47.472;11.214;2022-07-09T11:47:37;0.85;;;0.57;;
25247;SDS011;13191;47.472;11.214;2022-07-09T11:50:08;1.23;;;0.50;;
25247;SDS011;13191;47.472;11.214;2022-07-09T11:52:36;1.75;;;0.70;;
25247;SDS011;13191;47.472;11.214;2022-07-09T11:55:08;0.50;;;0.38;;
25247;SDS011;13191;47.472;11.214;2022-07-09T11:57:35;1.60;;;0.50;;
25247;SDS011;13191;47.472;11.214;2022-07-09T12:00:05;2.10;;;0.52;;
25247;SDS011;13191;47.472;11.214;2022-07-09T12:02:34;0.75;;;0.45;;
25247;SDS011;13191;47.472;11.214;2022-07-09T12:05:02;1.02;;;0.60;;
25247;SDS011;13191;47.472;11.214;2022-07-09T12:07:29;3.63;;;0.60;;
25247;SDS011;13191;47.472;11.214;2022-07-09T12:10:00;2.33;;;0.70;;
25247;SDS011;13191;47.472;11.214;2022-07-09T12:12:29;0.80;;;0.50;;
25247;SDS011;13191;47.472;11.214;2022-07-09T12:14:55;0.90;;;0.63;;
25247;SDS011;13191;47.472;11.214;2022-07-09T12:17:25;2.30;;;0.60;;
25247;SDS011;13191;47.472;11.214;2022-07-09T12:19:54;2.20;;;0.70;;
25247;SDS011;13191;47.472;11.214;2022-07-09T12:22:21;3.05;;;0.73;;
25247;SDS011;13191;47.472;11.214;2022-07-09T12:24:50;1.90;;;0.60;;
25247;SDS011;13191;47.472;11.214;2022-07-09T12:27:16;5.43;;;1.00;;
25247;SDS011;13191;47.472;11.214;2022-07-09T12:29:43;2.25;;;0.55;;
25247;SDS011;13191;47.472;11.214;2022-07-09T12:32:08;0.77;;;0.50;;
25247;SDS011;13191;47.472;11.214;2022-07-09T12:34:34;2.20;;;0.75;;
25247;SDS011;13191;47.472;11.214;2022-07-09T12:37:01;1.05;;;0.60;;
25247;SDS011;13191;47.472;11.214;2022-07-09T12:39:27;0.88;;;0.50;;
25247;SDS011;13191;47.472;11.214;2022-07-09T12:41:52;0.90;;;0.50;;
25247;SDS011;13191;47.472;11.214;2022-07-09T12:44:18;1.48;;;0.43;;
25247;SDS011;13191;47.472;11.214;2022-07-09T12:46:44;2.20;;;0.82;;
25247;SDS011;13191;47.472;11.214;2022-07-09T12:49:09;1.73;;;0.60;;
25247;SDS011;13191;47.472;11.214;2022-07-09T12:51:35;1.35;;;0.70;;
25247;SDS011;13191;47.472;11.214;2022-07-09T12:54:01;3.33;;;0.57;;
25247;SDS011;13191;47.472;11.214;2022-07-09T12:56:26;1.77;;;0.43;;
25247;SDS011;13191;47.472;11.214;2022-07-09T12:58:53;1.55;;;0.55;;
25247;SDS011;13191;47.472;11.214;2022-07-09T13:01:18;1.30;;;0.52;;
25247;SDS011;13191;47.472;11.214;2022-07-09T13:03:44;1.83;;;0.95;;
25247;SDS011;13191;47.472;11.214;2022-07-09T13:06:10;3.75;;;0.68;;
25247;SDS011;13191;47.472;11.214;2022-07-09T13:08:54;2.25;;;0.68;;
25247;SDS011;13191;47.472;11.214;2022-07-09T13:11:20;2.05;;;0.70;;
25247;SDS011;13191;47.472;11.214;2022-07-09T13:13:49;1.77;;;0.73;;
25247;SDS011;13191;47.472;11.214;2022-07-09T13:16:14;1.58;;;0.40;;
25247;SDS011;13191;47.472;11.214;2022-07-09T13:18:40;1.02;;;0.60;;
25247;SDS011;13191;47.472;11.214;2022-07-09T13:21:06;2.15;;;0.60;;
25247;SDS011;13191;47.472;11.214;2022-07-09T13:23:31;0.90;;;0.50;;
25247;SDS011;13191;47.472;11.214;2022-07-09T13:25:57;4.53;;;0.60;;
25247;SDS011;13191;47.472;11.214;2022-07-09T13:28:23;1.05;;;0.40;;
25247;SDS011;13191;47.472;11.214;2022-07-09T13:30:49;0.98;;;0.50;;
25247;SDS011;13191;47.472;11.214;2022-07-09T13:33:15;1.60;;;0.68;;
25247;SDS011;13191;47.472;11.214;2022-07-09T13:35:41;2.60;;;0.52;;
25247;SDS011;13191;47.472;11.214;2022-07-09T13:38:07;1.92;;;0.50;;
25247;SDS011;13191;47.472;11.214;2022-07-09T13:40:33;1.27;;;0.65;;
25247;SDS011;13191;47.472;11.214;2022-07-09T13:42:58;1.40;;;0.57;;
25247;SDS011;13191;47.472;11.214;2022-07-09T13:45:24;1.98;;;0.63;;
25247;SDS011;13191;47.472;11.214;2022-07-09T13:47:52;1.02;;;0.50;;
25247;SDS011;13191;47.472;11.214;2022-07-09T13:50:17;3.95;;;0.60;;
25247;SDS011;13191;47.472;11.214;2022-07-09T13:52:43;1.55;;;0.57;;
25247;SDS011;13191;47.472;11.214;2022-07-09T13:55:09;1.40;;;0.70;;
25247;SDS011;13191;47.472;11.214;2022-07-09T13:57:35;1.02;;;0.60;;
25247;SDS011;13191;47.472;11.214;2022-07-09T14:00:00;1.23;;;0.60;;
25247;SDS011;13191;47.472;11.214;2022-07-09T14:02:26;2.30;;;0.77;;
25247;SDS011;13191;47.472;11.214;2022-07-09T14:04:52;1.13;;;0.50;;
25247;SDS011;13191;47.472;11.214;2022-07-09T14:07:19;1.63;;;0.57;;
25247;SDS011;13191;47.472;11.214;2022-07-09T14:09:45;0.85;;;0.50;;
25247;SDS011;13191;47.472;11.214;2022-07-09T14:12:10;2.15;;;0.60;;
25247;SDS011;13191;47.472;11.214;2022-07-09T14:14:36;1.27;;;0.60;;
25247;SDS011;13191;47.472;11.214;2022-07-09T14:17:02;1.60;;;0.70;;
25247;SDS011;13191;47.472;11.214;2022-07-09T14:19:29;0.80;;;0.57;;
25247;SDS011;13191;47.472;11.214;2022-07-09T14:21:54;2.15;;;0.60;;
25247;SDS011;13191;47.472;11.214;2022-07-09T14:24:20;1.52;;;0.52;;
25247;SDS011;13191;47.472;11.214;2022-07-09T14:26:46;2.00;;;0.63;;
25247;SDS011;13191;47.472;11.214;2022-07-09T14:29:13;5.32;;;0.60;;
25247;SDS011;13191;47.472;11.214;2022-07-09T14:31:42;1.05;;;0.68;;
25247;SDS011;13191;47.472;11.214;2022-07-09T14:34:07;1.88;;;0.60;;
25247;SDS011;13191;47.472;11.214;2022-07-09T14:36:33;1.05;;;0.50;;
25247;SDS011;13191;47.472;11.214;2022-07-09T14:38:59;0.90;;;0.60;;
25247;SDS011;13191;47.472;11.214;2022-07-09T14:41:27;1.35;;;0.35;;